KFMN/FMN METAR and TAF weather

Enter ICAO airport designator
Station Type Date Time Source
KFMN METAR 2023/01/29 18:53 UTC NOAA

KFMN 291853Z 07012G18KT 10SM CLR 05/M09 A2988 RMK AO2 SLP132 T00501094


Station Type Date Time Source
KFMN Decoded METAR 2023/01/29 18:53 UTC NOAA

FARMINGTON FOUR CORNERS, NM, United States (KFMN) 36-45N 108-14W 1685M
Jan 29, 2023 - 01:53 PM EST / 2023.01.29 1853 UTC
Wind: from the ENE (070 degrees) at 14 MPH (12 KT) gusting to 21 MPH (18 KT):0
Visibility: 10 mile(s):0
Sky conditions: clear
Temperature: 41.0 F (5.0 C)
Dew Point: 15.1 F (-9.4 C)
Relative Humidity: 34%
Pressure (altimeter): 29.88 in. Hg (1011 hPa)
ob: KFMN 291853Z 07012G18KT 10SM CLR 05/M09 A2988 RMK AO2 SLP132 T00501094
cycle: 19

Station Type Date Time Source
KFMN TAF 2023/01/29 18:36 UTC NOAA

TAF KFMN 291735Z 2918/3018 10008KT P6SM FEW200
FM301100 10007KT P6SM BKN050 OVC100

Example: see airport list